createdAt,value
2024-02-26T00:00:31.314Z,99053.75
2024-02-26T00:02:57.926Z,99051.25
2024-02-26T00:05:24.730Z,99050.53
2024-02-26T00:07:51.300Z,99044.63
2024-02-26T00:10:17.881Z,99039.38
2024-02-26T00:12:44.576Z,99052.03
2024-02-26T00:15:11.580Z,99070.16
2024-02-26T00:17:39.012Z,99075.97
2024-02-26T00:20:09.884Z,99069.91
2024-02-26T00:22:37.035Z,99063.13
2024-02-26T00:25:03.909Z,99064.94
2024-02-26T00:27:30.464Z,99052.09
2024-02-26T00:29:57.127Z,99051.31
2024-02-26T00:32:24.298Z,99058.34
2024-02-26T00:34:51.783Z,99049.75
2024-02-26T00:37:18.521Z,99055.75
2024-02-26T00:39:45.890Z,99052.34
2024-02-26T00:42:12.618Z,99055.88
2024-02-26T00:44:39.326Z,99059.50
2024-02-26T00:47:06.011Z,99058.69
2024-02-26T00:49:33.194Z,99056.22
2024-02-26T00:51:59.776Z,99063.34
2024-02-26T00:54:26.333Z,99060.94
2024-02-26T00:56:52.936Z,99055.63
2024-02-26T00:59:19.546Z,99059.13
2024-02-26T01:01:46.123Z,99063.59
2024-02-26T01:04:13.505Z,99061.06
2024-02-26T01:06:40.244Z,99061.91
2024-02-26T01:09:07.195Z,99054.09
2024-02-26T01:11:33.980Z,99054.09
2024-02-26T01:14:00.743Z,99061.13
2024-02-26T01:16:29.961Z,99072.44
2024-02-26T01:18:56.661Z,99075.03
2024-02-26T01:21:23.365Z,99063.03
2024-02-26T01:23:50.104Z,99060.38
2024-02-26T01:26:16.634Z,99059.53
2024-02-26T01:28:43.212Z,99063.72
2024-02-26T01:31:11.289Z,99060.31
2024-02-26T01:33:38.102Z,99058.72
2024-02-26T01:36:06.443Z,99063.94
2024-02-26T01:38:33.078Z,99056.97
2024-02-26T01:40:59.743Z,99057.03
2024-02-26T01:43:26.316Z,99056.13
2024-02-26T01:45:52.973Z,99061.28
2024-02-26T01:48:19.780Z,99062.06
2024-02-26T01:50:46.482Z,99058.75
2024-02-26T01:53:14.049Z,99062.06
2024-02-26T01:55:41.480Z,99056.03
2024-02-26T01:58:08.334Z,99061.22
2024-02-26T02:00:35.454Z,99059.66
2024-02-26T02:03:04.711Z,99055.41
2024-02-26T02:05:31.829Z,99061.59
2024-02-26T02:07:58.515Z,99063.38
2024-02-26T02:10:27.260Z,99054.72
2024-02-26T02:12:54.069Z,99058.41
2024-02-26T02:15:21.752Z,99066.03
2024-02-26T02:17:49.078Z,99058.41
2024-02-26T02:20:19.910Z,99057.63
2024-02-26T02:22:47.471Z,99056.03
2024-02-26T02:25:14.632Z,99056.28
2024-02-26T02:27:43.477Z,99053.50
2024-02-26T02:30:11.880Z,99053.53
2024-02-26T02:32:42.045Z,99045.75
2024-02-26T02:35:11.828Z,99050.53
2024-02-26T02:37:38.710Z,99046.53
2024-02-26T02:40:06.345Z,99038.03
2024-02-26T02:42:32.889Z,99046.91
2024-02-26T02:44:59.491Z,99040.03
2024-02-26T02:47:26.154Z,99042.44
2024-02-26T02:49:52.698Z,99039.25
2024-02-26T02:52:19.342Z,99039.66
2024-02-26T02:54:48.092Z,99038.88
2024-02-26T02:57:14.887Z,99038.97
2024-02-26T02:59:41.554Z,99033.28
2024-02-26T03:02:08.157Z,99042.00
2024-02-26T03:04:34.872Z,99031.69
2024-02-26T03:07:01.853Z,99036.91
2024-02-26T03:09:28.662Z,99042.09
2024-02-26T03:11:55.362Z,99042.94
2024-02-26T03:14:22.034Z,99035.94
2024-02-26T03:16:48.638Z,99044.75
2024-02-26T03:19:18.649Z,99039.63
2024-02-26T03:21:45.384Z,99034.50
2024-02-26T03:24:13.206Z,99031.13
2024-02-26T03:26:40.011Z,99025.13
2024-02-26T03:29:06.920Z,99028.63
2024-02-26T03:31:33.502Z,99028.63
2024-02-26T03:34:00.438Z,99024.47
2024-02-26T03:36:27.980Z,99023.44
2024-02-26T03:38:54.790Z,99025.31
2024-02-26T03:41:21.327Z,99037.41
2024-02-26T03:43:48.079Z,99036.38
2024-02-26T03:46:15.066Z,99026.00
2024-02-26T03:48:42.778Z,99029.44
2024-02-26T03:51:10.778Z,99023.16
2024-02-26T03:53:38.602Z,99026.78
2024-02-26T03:56:06.692Z,99030.22
2024-02-26T03:58:33.905Z,99027.31
2024-02-26T04:01:01.347Z,99038.88
2024-02-26T04:03:27.996Z,99038.03
2024-02-26T04:05:54.885Z,99044.19
2024-02-26T04:08:21.511Z,99044.13
2024-02-26T04:10:48.212Z,99048.69
2024-02-26T04:13:14.807Z,99047.72
2024-02-26T04:15:41.401Z,99052.13
2024-02-26T04:18:08.228Z,99050.53
2024-02-26T04:20:34.830Z,99052.38
2024-02-26T04:23:01.420Z,99053.34
2024-02-26T04:25:29.408Z,99054.34
2024-02-26T04:27:56.042Z,99050.81
2024-02-26T04:30:22.719Z,99057.00
2024-02-26T04:32:49.362Z,99060.97
2024-02-26T04:35:16.136Z,99063.66
2024-02-26T04:37:42.742Z,99064.59
2024-02-26T04:40:09.710Z,99062.88
2024-02-26T04:42:36.365Z,99058.53
2024-02-26T04:45:03.338Z,99070.78
2024-02-26T04:47:31.132Z,99066.50
2024-02-26T04:49:57.804Z,99069.94
2024-02-26T04:52:24.445Z,99079.59
2024-02-26T04:54:51.195Z,99069.34
2024-02-26T04:57:19.660Z,99079.69
2024-02-26T04:59:47.114Z,99075.28
2024-02-26T05:02:14.510Z,99081.44
2024-02-26T05:04:41.401Z,99074.53
2024-02-26T05:07:08.120Z,99071.69
2024-02-26T05:09:34.866Z,99073.63
2024-02-26T05:12:01.606Z,99070.13
2024-02-26T05:14:28.165Z,99078.81
2024-02-26T05:16:54.745Z,99082.97
2024-02-26T05:19:21.433Z,99087.94
2024-02-26T05:21:50.275Z,99087.94
2024-02-26T05:24:18.824Z,99081.03
2024-02-26T05:26:46.807Z,99090.88
2024-02-26T05:29:13.653Z,99087.31
2024-02-26T05:31:40.875Z,99086.69
2024-02-26T05:34:07.782Z,99094.13
2024-02-26T05:36:34.884Z,99104.63
2024-02-26T05:39:02.641Z,99103.72
2024-02-26T05:41:29.262Z,99092.47
2024-02-26T05:43:56.159Z,99106.28
2024-02-26T05:46:23.496Z,99099.34
2024-02-26T05:48:53.977Z,99103.00
2024-02-26T05:51:21.028Z,99105.34
2024-02-26T05:53:49.058Z,99110.34
2024-02-26T05:56:15.695Z,99116.47
2024-02-26T05:58:42.284Z,99116.34
2024-02-26T06:01:08.888Z,99115.69
2024-02-26T06:03:35.624Z,99117.56
2024-02-26T06:06:03.323Z,99110.91
2024-02-26T06:08:30.118Z,99107.25
2024-02-26T06:10:56.777Z,99120.16
2024-02-26T06:13:23.388Z,99114.97
2024-02-26T06:15:50.092Z,99120.56
2024-02-26T06:18:17.355Z,99119.03
2024-02-26T06:20:44.129Z,99124.25
2024-02-26T06:23:11.227Z,99129.84
2024-02-26T06:25:37.845Z,99133.38
2024-02-26T06:28:04.644Z,99128.03
2024-02-26T06:30:31.411Z,99134.88
2024-02-26T06:32:58.165Z,99141.94
2024-02-26T06:35:24.876Z,99152.31
2024-02-26T06:37:53.751Z,99149.53
2024-02-26T06:40:20.780Z,99155.81
2024-02-26T06:42:49.707Z,99160.91
2024-02-26T06:45:16.681Z,99164.50
2024-02-26T06:47:43.944Z,99161.00
2024-02-26T06:50:13.158Z,99161.09
2024-02-26T06:52:39.756Z,99167.06
2024-02-26T06:55:09.344Z,99172.09
2024-02-26T06:57:35.964Z,99174.03
2024-02-26T07:00:05.026Z,99172.16
2024-02-26T07:02:32.412Z,99175.66
2024-02-26T07:04:59.545Z,99180.66
2024-02-26T07:07:26.689Z,99185.81
2024-02-26T07:09:53.382Z,99187.34
2024-02-26T07:12:22.266Z,99186.66
2024-02-26T07:14:50.087Z,99189.22
2024-02-26T07:17:17.399Z,99186.03
2024-02-26T07:19:44.150Z,99191.94
2024-02-26T07:22:10.800Z,99197.22
2024-02-26T07:24:37.367Z,99198.06
2024-02-26T07:27:04.278Z,99200.88
2024-02-26T07:29:30.894Z,99199.72
2024-02-26T07:31:57.800Z,99204.78
2024-02-26T07:34:28.799Z,99201.28
2024-02-26T07:36:55.803Z,99201.47
2024-02-26T07:39:22.470Z,99204.78
2024-02-26T07:41:51.074Z,99198.66
2024-02-26T07:44:17.932Z,99213.44
2024-02-26T07:46:44.448Z,99208.06
2024-02-26T07:49:11.153Z,99211.50
2024-02-26T07:51:37.897Z,99208.03
2024-02-26T07:54:05.208Z,99215.19
2024-02-26T07:56:31.859Z,99217.78
2024-02-26T07:58:58.519Z,99217.72
2024-02-26T08:01:27.132Z,99218.66
2024-02-26T08:03:56.922Z,99226.22
2024-02-26T08:06:24.886Z,99230.13
2024-02-26T08:08:51.805Z,99235.88
2024-02-26T08:11:18.429Z,99220.38
2024-02-26T08:13:45.047Z,99235.06
2024-02-26T08:16:11.669Z,99235.84
2024-02-26T08:18:38.335Z,99243.66
2024-02-26T08:21:05.321Z,99246.84
2024-02-26T08:23:32.816Z,99249.34
2024-02-26T08:25:59.452Z,99253.63
2024-02-26T08:28:26.118Z,99249.19
2024-02-26T08:30:52.716Z,99252.41
2024-02-26T08:33:19.633Z,99246.13
2024-02-26T08:35:46.370Z,99264.06
2024-02-26T08:38:13.082Z,99263.31
2024-02-26T08:40:39.664Z,99269.22
2024-02-26T08:43:06.203Z,99267.50
2024-02-26T08:45:32.946Z,99273.44
2024-02-26T08:48:00.688Z,99274.22
2024-02-26T08:50:27.900Z,99268.28
2024-02-26T08:52:54.570Z,99274.41
2024-02-26T08:55:21.298Z,99271.97
2024-02-26T08:57:49.087Z,99284.03
2024-02-26T09:00:18.847Z,99303.03
2024-02-26T09:02:45.819Z,99290.97
2024-02-26T09:05:12.689Z,99288.50
2024-02-26T09:07:39.503Z,99295.28
2024-02-26T09:10:07.092Z,99293.56
2024-02-26T09:12:33.829Z,99293.56
2024-02-26T09:15:00.725Z,99297.13
2024-02-26T09:17:27.524Z,99288.38
2024-02-26T09:19:54.094Z,99294.38
2024-02-26T09:22:20.683Z,99300.72
2024-02-26T09:24:47.406Z,99304.16
2024-02-26T09:27:14.011Z,99309.38
2024-02-26T09:29:40.586Z,99305.06
2024-02-26T09:32:07.373Z,99311.81
2024-02-26T09:34:35.062Z,99310.06
2024-02-26T09:37:08.598Z,99313.47
2024-02-26T09:39:42.383Z,99321.22
2024-02-26T09:42:11.292Z,99327.25
2024-02-26T09:44:42.368Z,99334.22
2024-02-26T09:47:14.707Z,99336.88
2024-02-26T09:49:41.516Z,99336.03
2024-02-26T09:52:10.660Z,99334.28
2024-02-26T09:54:37.352Z,99335.31
2024-02-26T09:57:08.887Z,99346.56
2024-02-26T09:59:43.930Z,99352.81
2024-02-26T10:02:14.201Z,99353.84
2024-02-26T10:04:41.934Z,99352.09
2024-02-26T10:07:15.277Z,99362.63
2024-02-26T10:09:42.020Z,99356.41
2024-02-26T10:12:11.801Z,99365.81
2024-02-26T10:14:38.503Z,99367.41
2024-02-26T10:17:09.819Z,99366.56
2024-02-26T10:19:38.897Z,99367.41
2024-02-26T10:22:06.767Z,99374.84
2024-02-26T10:24:33.813Z,99370.63
2024-02-26T10:27:00.646Z,99381.41
2024-02-26T10:29:27.384Z,99385.00
2024-02-26T10:31:54.341Z,99383.38
2024-02-26T10:34:22.375Z,99378.19
2024-02-26T10:36:53.592Z,99383.16
2024-02-26T10:39:21.635Z,99395.31
2024-02-26T10:41:48.522Z,99388.31
2024-02-26T10:44:18.339Z,99393.25
2024-02-26T10:46:48.336Z,99392.34
2024-02-26T10:49:25.271Z,99398.16
2024-02-26T10:51:58.526Z,99397.59
2024-02-26T10:54:28.831Z,99397.53
2024-02-26T10:56:58.416Z,99403.66
2024-02-26T10:59:25.449Z,99398.34
2024-02-26T11:01:53.042Z,99413.03
2024-02-26T11:04:21.172Z,99409.50
2024-02-26T11:06:49.146Z,99412.84
2024-02-26T11:09:16.823Z,99413.03
2024-02-26T11:11:43.864Z,99414.72
2024-02-26T11:14:11.273Z,99422.47
2024-02-26T11:16:40.229Z,99422.38
2024-02-26T11:19:10.479Z,99427.31
2024-02-26T11:21:42.371Z,99420.25
2024-02-26T11:24:14.605Z,99422.72
2024-02-26T11:26:49.329Z,99426.38
2024-02-26T11:29:21.826Z,99429.63
2024-02-26T11:31:48.938Z,99433.31
2024-02-26T11:34:15.866Z,99433.38
2024-02-26T11:36:43.518Z,99434.31
2024-02-26T11:39:13.720Z,99438.72
2024-02-26T11:41:40.487Z,99435.25
2024-02-26T11:44:08.315Z,99445.69
2024-02-26T11:46:44.743Z,99438.72
2024-02-26T11:49:30.125Z,99444.84
2024-02-26T11:51:57.769Z,99447.22
2024-02-26T11:54:54.361Z,99456.66
2024-02-26T11:57:31.833Z,99449.66
2024-02-26T12:00:17.820Z,99449.91
2024-02-26T12:02:44.872Z,99458.47
2024-02-26T12:05:17.780Z,99467.13
2024-02-26T12:07:50.040Z,99451.56
2024-02-26T12:10:23.202Z,99456.88
2024-02-26T12:12:50.752Z,99461.91
2024-02-26T12:15:18.651Z,99462.88
2024-02-26T12:17:50.541Z,99469.78
2024-02-26T12:20:18.551Z,99468.09
2024-02-26T12:22:49.332Z,99473.19
2024-02-26T12:25:15.957Z,99475.84
2024-02-26T12:27:42.644Z,99468.03
2024-02-26T12:30:09.935Z,99468.00
2024-02-26T12:32:37.422Z,99474.72
2024-02-26T12:35:05.098Z,99474.59
2024-02-26T12:37:31.864Z,99479.75
2024-02-26T12:39:58.910Z,99475.31
2024-02-26T12:42:26.018Z,99487.47
2024-02-26T12:44:53.850Z,99483.69
2024-02-26T12:47:20.444Z,99489.03
2024-02-26T12:49:50.785Z,99491.25
2024-02-26T12:52:18.277Z,99499.81
2024-02-26T12:54:45.638Z,99500.09
2024-02-26T12:57:12.637Z,99495.66
2024-02-26T12:59:40.003Z,99507.06
2024-02-26T13:02:08.548Z,99509.47
2024-02-26T13:04:36.206Z,99517.94
2024-02-26T13:07:06.291Z,99516.19
2024-02-26T13:09:37.238Z,99520.25
2024-02-26T13:12:08.579Z,99530.94
2024-02-26T13:14:35.515Z,99540.28
2024-02-26T13:17:03.490Z,99537.75
2024-02-26T13:19:30.504Z,99541.47
2024-02-26T13:21:57.340Z,99548.06
2024-02-26T13:24:26.359Z,99547.06
2024-02-26T13:26:56.983Z,99552.16
2024-02-26T13:29:26.449Z,99551.38
2024-02-26T13:31:59.888Z,99553.19
2024-02-26T13:34:28.431Z,99555.44
2024-02-26T13:36:56.170Z,99563.50
2024-02-26T13:39:27.200Z,99567.91
2024-02-26T13:41:54.702Z,99561.31
2024-02-26T13:44:21.967Z,99571.50
2024-02-26T13:46:50.575Z,99570.41
2024-02-26T13:49:17.565Z,99575.44
2024-02-26T13:51:44.613Z,99577.50
2024-02-26T13:54:11.891Z,99585.25
2024-02-26T13:56:38.735Z,99576.22
2024-02-26T13:59:05.919Z,99577.66
2024-02-26T14:01:34.955Z,99576.78
2024-02-26T14:04:03.373Z,99582.66
2024-02-26T14:06:32.243Z,99583.44
2024-02-26T14:08:59.768Z,99589.34
2024-02-26T14:11:26.817Z,99589.03
2024-02-26T14:13:53.550Z,99588.72
2024-02-26T14:16:21.495Z,99589.47
2024-02-26T14:18:48.562Z,99586.88
2024-02-26T14:21:15.496Z,99593.50
2024-02-26T14:23:43.726Z,99592.75
2024-02-26T14:26:10.576Z,99596.19
2024-02-26T14:28:37.243Z,99600.00
2024-02-26T14:31:05.495Z,99599.16
2024-02-26T14:33:32.446Z,99612.31
2024-02-26T14:35:59.301Z,99605.50
2024-02-26T14:38:25.887Z,99615.69
2024-02-26T14:40:52.450Z,99623.56
2024-02-26T14:43:19.021Z,99632.28
2024-02-26T14:45:45.680Z,99627.53
2024-02-26T14:48:12.777Z,99631.84
2024-02-26T14:50:39.638Z,99636.06
2024-02-26T14:53:06.555Z,99642.13
2024-02-26T14:55:33.683Z,99643.84
2024-02-26T14:58:00.397Z,99645.44
2024-02-26T15:00:27.137Z,99650.03
2024-02-26T15:02:55.990Z,99652.66
2024-02-26T15:05:22.744Z,99653.59
2024-02-26T15:07:50.323Z,99660.63
2024-02-26T15:10:17.079Z,99657.19
2024-02-26T15:12:43.917Z,99665.97
2024-02-26T15:15:10.875Z,99671.13
2024-02-26T15:17:37.679Z,99664.06
2024-02-26T15:20:06.760Z,99672.47
2024-02-26T15:22:33.435Z,99675.50
2024-02-26T15:25:00.058Z,99677.88
2024-02-26T15:27:26.775Z,99677.97
2024-02-26T15:29:59.316Z,99682.28
2024-02-26T15:32:25.935Z,99690.91
2024-02-26T15:34:52.674Z,99684.69
2024-02-26T15:37:20.161Z,99697.44
2024-02-26T15:39:47.216Z,99695.91
2024-02-26T15:42:14.153Z,99700.19
2024-02-26T15:44:41.874Z,99704.97
2024-02-26T15:47:08.703Z,99706.06
2024-02-26T15:49:35.589Z,99706.88
2024-02-26T15:52:02.432Z,99712.00
2024-02-26T15:54:29.037Z,99720.59
2024-02-26T15:56:55.922Z,99720.78
2024-02-26T15:59:22.588Z,99722.41
2024-02-26T16:01:50.295Z,99728.69
2024-02-26T16:04:17.070Z,99733.06
2024-02-26T16:06:46.982Z,99744.25
2024-02-26T16:09:13.681Z,99744.34
2024-02-26T16:11:40.877Z,99750.34
2024-02-26T16:14:45.870Z,99762.56
2024-02-26T16:17:35.272Z,99763.59
2024-02-26T16:20:05.283Z,99766.41
2024-02-26T16:22:33.319Z,99763.69
2024-02-26T16:25:00.074Z,99767.84
2024-02-26T16:27:26.773Z,99770.13
2024-02-26T16:29:54.187Z,99777.75
2024-02-26T16:32:20.820Z,99777.09
2024-02-26T16:34:47.506Z,99789.22
2024-02-26T16:37:15.343Z,99783.94
2024-02-26T16:39:42.613Z,99783.97
2024-02-26T16:42:11.452Z,99796.22
2024-02-26T16:44:38.743Z,99792.81
2024-02-26T16:47:09.441Z,99794.47
2024-02-26T16:49:36.727Z,99797.94
2024-02-26T16:52:04.388Z,99808.28
2024-02-26T16:54:31.311Z,99808.28
2024-02-26T16:57:00.939Z,99822.19
2024-02-26T16:59:29.393Z,99822.19
2024-02-26T17:01:56.869Z,99833.59
2024-02-26T17:04:24.446Z,99839.72
2024-02-26T17:06:51.247Z,99838.25
2024-02-26T17:09:19.543Z,99839.19
2024-02-26T17:11:47.143Z,99844.38
2024-02-26T17:14:14.118Z,99855.66
2024-02-26T17:16:40.780Z,99855.66
2024-02-26T17:19:07.394Z,99855.72
2024-02-26T17:21:34.188Z,99872.25
2024-02-26T17:24:02.134Z,99873.88
2024-02-26T17:26:29.327Z,99872.16
2024-02-26T17:28:57.273Z,99892.03
2024-02-26T17:31:26.066Z,99893.78
2024-02-26T17:33:52.839Z,99901.59
2024-02-26T17:36:19.612Z,99900.75
2024-02-26T17:38:49.389Z,99906.00
2024-02-26T17:41:16.710Z,99908.59
2024-02-26T17:43:43.499Z,99916.38
2024-02-26T17:46:10.199Z,99919.06
2024-02-26T17:48:36.887Z,99923.44
2024-02-26T17:51:04.984Z,99930.31
2024-02-26T17:53:31.586Z,99931.19
2024-02-26T17:55:58.443Z,99937.22
2024-02-26T17:58:24.988Z,99936.34
2024-02-26T18:00:51.647Z,99936.59
2024-02-26T18:03:18.212Z,99952.91
2024-02-26T18:05:44.772Z,99955.53
2024-02-26T18:08:12.145Z,99954.56
2024-02-26T18:10:38.701Z,99970.19
2024-02-26T18:13:05.427Z,99964.25
2024-02-26T18:15:33.466Z,99976.41
2024-02-26T18:18:00.507Z,99973.91
2024-02-26T18:20:27.259Z,99979.94
2024-02-26T18:22:53.815Z,99992.03
2024-02-26T18:25:20.373Z,99999.84
2024-02-26T18:27:47.272Z,100005.84
2024-02-26T18:30:14.080Z,100003.25
2024-02-26T18:32:40.812Z,100007.66
2024-02-26T18:35:09.749Z,100015.47
2024-02-26T18:37:36.464Z,100029.38
2024-02-26T18:40:07.849Z,100021.56
2024-02-26T18:42:36.624Z,100031.97
2024-02-26T18:45:03.716Z,100028.66
2024-02-26T18:47:31.059Z,100027.81
2024-02-26T18:49:58.529Z,100038.19
2024-02-26T18:52:25.210Z,100045.03
2024-02-26T18:54:51.901Z,100048.56
2024-02-26T18:57:18.973Z,100052.06
2024-02-26T18:59:47.281Z,100054.66
2024-02-26T19:02:14.099Z,100055.53
2024-02-26T19:04:41.289Z,100059.84
2024-02-26T19:07:07.974Z,100072.03
2024-02-26T19:09:34.904Z,100073.66
2024-02-26T19:12:01.677Z,100082.31
2024-02-26T19:14:29.791Z,100070.03
2024-02-26T19:16:56.495Z,100076.81
2024-02-26T19:19:23.590Z,100078.59
2024-02-26T19:21:50.204Z,100088.97
2024-02-26T19:24:18.215Z,100090.81
2024-02-26T19:26:44.836Z,100089.94
2024-02-26T19:29:11.535Z,100094.31
2024-02-26T19:31:38.228Z,100090.03
2024-02-26T19:34:05.072Z,100102.28
2024-02-26T19:36:32.093Z,100105.75
2024-02-26T19:38:58.998Z,100112.75
2024-02-26T19:41:25.609Z,100115.28
2024-02-26T19:43:52.228Z,100125.69
2024-02-26T19:46:18.907Z,100122.22
2024-02-26T19:48:45.731Z,100119.63
2024-02-26T19:51:21.568Z,100133.53
2024-02-26T19:53:52.187Z,100133.50
2024-02-26T19:56:22.577Z,100131.66
2024-02-26T19:58:49.181Z,100141.19
2024-02-26T20:01:15.920Z,100148.91
2024-02-26T20:03:49.428Z,100141.16
2024-02-26T20:06:19.717Z,100150.63
2024-02-26T20:08:46.628Z,100147.16
2024-02-26T20:11:18.162Z,100149.78
2024-02-26T20:13:45.215Z,100165.31
2024-02-26T20:16:13.534Z,100151.56
2024-02-26T20:18:40.320Z,100166.13
2024-02-26T20:21:07.424Z,100165.25
2024-02-26T20:23:34.004Z,100173.91
2024-02-26T20:26:02.572Z,100192.19
2024-02-26T20:28:31.108Z,100176.63
2024-02-26T20:30:57.758Z,100188.81
2024-02-26T20:33:25.646Z,100185.34
2024-02-26T20:35:52.570Z,100192.31
2024-02-26T20:38:19.565Z,100195.84
2024-02-26T20:40:46.198Z,100201.09
2024-02-26T20:43:12.860Z,100198.50
2024-02-26T20:45:40.505Z,100202.06
2024-02-26T20:48:10.295Z,100202.84
2024-02-26T20:50:37.453Z,100214.13
2024-02-26T20:53:04.299Z,100210.66
2024-02-26T20:55:30.919Z,100215.94
2024-02-26T20:57:57.829Z,100224.63
2024-02-26T21:00:24.637Z,100228.84
2024-02-26T21:02:51.542Z,100228.00
2024-02-26T21:05:18.471Z,100231.53
2024-02-26T21:07:45.473Z,100246.25
2024-02-26T21:10:13.483Z,100247.19
2024-02-26T21:12:40.853Z,100244.59
2024-02-26T21:15:09.641Z,100247.19
2024-02-26T21:17:36.249Z,100252.34
2024-02-26T21:20:03.275Z,100256.72
2024-02-26T21:22:30.043Z,100248.91
2024-02-26T21:24:56.620Z,100264.47
2024-02-26T21:27:23.779Z,100277.50
2024-02-26T21:29:50.738Z,100280.97
2024-02-26T21:32:17.539Z,100281.84
2024-02-26T21:34:45.442Z,100285.34
2024-02-26T21:37:12.232Z,100286.19
2024-02-26T21:39:39.017Z,100294.88
2024-02-26T21:42:05.918Z,100299.25
2024-02-26T21:44:32.747Z,100299.28
2024-02-26T21:46:59.690Z,100306.16
2024-02-26T21:49:26.394Z,100306.22
2024-02-26T21:51:53.120Z,100313.03
2024-02-26T21:54:20.271Z,100315.63
2024-02-26T21:56:46.976Z,100313.97
2024-02-26T21:59:14.127Z,100320.91
2024-02-26T22:01:40.979Z,100328.72
2024-02-26T22:04:07.775Z,100325.16
2024-02-26T22:06:34.660Z,100337.41
2024-02-26T22:09:01.646Z,100328.69
2024-02-26T22:11:28.453Z,100339.13
2024-02-26T22:13:55.158Z,100336.50
2024-02-26T22:16:21.920Z,100341.75
2024-02-26T22:18:48.853Z,100339.16
2024-02-26T22:21:15.653Z,100343.50
2024-02-26T22:23:42.392Z,100346.28
2024-02-26T22:26:10.354Z,100354.22
2024-02-26T22:28:37.757Z,100359.47
2024-02-26T22:31:05.599Z,100350.88
2024-02-26T22:33:32.759Z,100368.16
2024-02-26T22:35:59.610Z,100369.03
2024-02-26T22:38:26.230Z,100377.63
2024-02-26T22:40:52.775Z,100377.56
2024-02-26T22:43:19.362Z,100377.69
2024-02-26T22:45:46.134Z,100387.16
2024-02-26T22:48:13.356Z,100388.94
2024-02-26T22:50:39.967Z,100390.75
2024-02-26T22:53:06.810Z,100391.53
2024-02-26T22:55:33.375Z,100396.81
2024-02-26T22:58:00.060Z,100398.59
2024-02-26T23:00:33.325Z,100421.09
2024-02-26T23:03:01.031Z,100415.97
2024-02-26T23:05:28.534Z,100415.97
2024-02-26T23:07:56.755Z,100416.00
2024-02-26T23:10:24.152Z,100415.09
2024-02-26T23:12:51.395Z,100424.59
2024-02-26T23:15:19.245Z,100418.53
2024-02-26T23:17:46.033Z,100428.09
2024-02-26T23:20:14.525Z,100430.72
2024-02-26T23:22:47.966Z,100433.31
2024-02-26T23:25:15.985Z,100441.97
2024-02-26T23:27:44.519Z,100444.56
2024-02-26T23:30:12.128Z,100451.50
2024-02-26T23:32:39.113Z,100451.41
2024-02-26T23:35:08.127Z,100449.75
2024-02-26T23:37:36.530Z,100455.81
2024-02-26T23:40:08.932Z,100458.38
2024-02-26T23:42:36.476Z,100459.22
2024-02-26T23:45:03.976Z,100462.63
2024-02-26T23:47:30.667Z,100461.78
2024-02-26T23:49:58.218Z,100461.72
2024-02-26T23:52:24.912Z,100460.00
2024-02-26T23:54:51.648Z,100463.47
2024-02-26T23:57:18.444Z,100460.00
2024-02-26T23:59:45.177Z,100465.16
